Wilson Lista — 8PRW — position and weather

sailwx.info

Track history (hours):
 
Tides and Currents Weather Stations Pressure Air Temp Water Temp Dewpoint Dewpoint Depression Visibility Wind Speed Wind Dir Waves Ship Positions

Wilson Lista

Last reported at 2014-Jul-26 02:33 UTC. Time now 2014-Jul-26 03:08 UTC.
Position N 47°39' W 005°08'.

Length 88 m; draft 4.6 m.

Type: Cargo ship. MMSI: 314188000.

Date/timePositionNaut miles runAvg speedWind from/ knotsBaromVisibWave heightAir tempDewpointWater temp
2014-Jul-26 02:33N 47°39' W 005°08'  
2014-Jul-20 05:27N 50°35' E 000°17'8 8.4
2014-Jul-20 04:33N 50°37' E 000°28'9 7.9
2014-Jul-20 03:29N 50°41' E 000°40'7 7.9
2014-Jul-20 02:33N 50°45' E 000°49'29 9.7
2014-Jul-19 23:33N 51°03' E 001°26'1010.0
2014-Jul-19 22:33N 51°09' E 001°38'9 8.9
2014-Jul-19 21:34N 51°16' E 001°48'8 7.9
2014-Jul-19 20:33N 51°22' E 001°55'7 7.2
2014-Jul-19 19:33N 51°28' E 002°02'8 7.8
2014-Jul-19 18:33N 51°34' E 002°10'8 7.9
2014-Jul-19 17:33N 51°40' E 002°19'62 8.8
2014-Jul-19 10:33N 52°03' E 003°51'9 9.3
2014-Jul-19 09:33N 51°59' E 004°04'8 8.0
2014-Jul-19 08:33N 51°54' E 004°14'0 0.0
2014-Jul-19 07:32N 51°54' E 004°14'0 0.0
2014-Jul-19 06:31N 51°54' E 004°14'0 0.1
2014-Jul-19 05:33N 51°54' E 004°14'0 0.0
2014-Jul-19 04:34N 51°54' E 004°14'0 0.0
2014-Jul-19 03:33N 51°54' E 004°14'0 0.0
2014-Jul-19 02:33N 51°54' E 004°14'0 0.0
2014-Jul-19 01:32N 51°54' E 004°14'0 0.0
2014-Jul-19 00:33N 51°54' E 004°14'0 0.0
2014-Jul-18 23:33N 51°54' E 004°14'0 0.0
2014-Jul-18 22:34N 51°54' E 004°14'0 0.0
2014-Jul-18 21:33N 51°54' E 004°14'0 0.0
2014-Jul-18 20:33N 51°54' E 004°14'0 0.0
2014-Jul-18 19:32N 51°54' E 004°14'0 0.0
2014-Jul-18 18:31N 51°54' E 004°14'1 0.9
2014-Jul-18 17:33N 51°54' E 004°14'9 8.8
2014-Jul-18 16:33N 51°59' E 004°02'72 8.4
2014-Jul-18 08:04N 53°10' E 004°23'4 8.0
2014-Jul-18 07:33N 53°14' E 004°26'12 9.7
2014-Jul-18 06:17N 53°25' E 004°34'1110.3
2014-Jul-18 05:15N 53°31' E 004°49'811.2
2014-Jul-18 04:32N 53°33' E 005°02'1111.0
2014-Jul-18 03:33N 53°37' E 005°19'1010.5
2014-Jul-18 02:33N 53°40' E 005°36'10 9.7
2014-Jul-18 01:33N 53°44' E 005°52'20 8.8
2014-Jul-17 23:17N 53°50' E 006°23'6 8.6
2014-Jul-17 22:33N 53°51' E 006°34'9 9.2
2014-Jul-17 21:33N 53°53' E 006°49'1110.2
2014-Jul-17 20:28N 53°56' E 007°07'1010.9
2014-Jul-17 19:32N 53°58' E 007°24'1010.0
2014-Jul-17 18:33N 53°58' E 007°41'1410.0
2014-Jul-17 17:11N 53°51' E 008°01'711.7
2014-Jul-17 16:33N 53°46' E 008°10'1010.2
2014-Jul-17 15:33N 53°40' E 008°23'9 8.9
2014-Jul-17 14:33N 53°33' E 008°33'2 1.6
2014-Jul-17 13:32N 53°32' E 008°35'0 0.0
2014-Jul-17 12:32N 53°32' E 008°35'0 0.0
2014-Jul-17 11:32N 53°32' E 008°35'0 0.0
2014-Jul-17 10:31N 53°32' E 008°35'0 0.0
2014-Jul-17 09:31N 53°32' E 008°35'0 0.0
2014-Jul-17 08:33N 53°32' E 008°35'0 0.0
2014-Jul-17 07:30N 53°32' E 008°35'0 0.0
2014-Jul-17 06:32N 53°32' E 008°35'0 0.0
2014-Jul-17 05:32N 53°32' E 008°35'0 0.0
2014-Jul-17 04:31N 53°32' E 008°35'0 0.0
2014-Jul-17 03:28N 53°32' E 008°35'0 0.0
2014-Jul-17 02:28N 53°32' E 008°35'0 0.0
2014-Jul-17 01:33N 53°32' E 008°35'0 0.0
2014-Jul-17 00:33N 53°32' E 008°35'0 0.0
2014-Jul-16 23:32N 53°32' E 008°35'0 0.0
2014-Jul-16 22:32N 53°32' E 008°35'0 0.0
2014-Jul-16 21:32N 53°32' E 008°35'0 0.0
2014-Jul-16 20:31N 53°32' E 008°35'0 0.0
2014-Jul-16 19:31N 53°32' E 008°35'0 0.0
2014-Jul-16 18:33N 53°32' E 008°35'0 0.0
2014-Jul-16 17:33N 53°32' E 008°35'0 0.0
2014-Jul-16 16:33N 53°32' E 008°35'0 0.0
2014-Jul-16 15:32N 53°32' E 008°35'0 0.0
2014-Jul-16 14:32N 53°32' E 008°35'0 0.0
2014-Jul-16 13:31N 53°32' E 008°35'0 0.0
2014-Jul-16 12:31N 53°32' E 008°35'0 0.0
2014-Jul-16 11:27N 53°32' E 008°35'0 0.0
2014-Jul-16 10:33N 53°32' E 008°35'0 0.0
2014-Jul-16 09:33N 53°32' E 008°35'0 0.0
2014-Jul-16 08:32N 53°32' E 008°35'0 0.0
2014-Jul-16 07:29N 53°32' E 008°35'0 0.0
2014-Jul-16 06:31N 53°32' E 008°35'0 0.0
2014-Jul-16 05:31N 53°32' E 008°35'0 0.0
2014-Jul-16 04:30N 53°32' E 008°35'0 0.0
2014-Jul-16 03:33N 53°32' E 008°35'  
Track history (hours):
 
Tides and Currents Weather Stations Pressure Air Temp Water Temp Dewpoint Dewpoint Depression Visibility Wind Speed Wind Dir Waves Ship Positions

Wilson Lista

Last reported at 2014-Jul-26 02:33 UTC. Time now 2014-Jul-26 03:08 UTC.
Position N 47°39' W 005°08'.

Length 88 m; draft 4.6 m.

Type: Cargo ship. MMSI: 314188000.

Date/timePositionNaut miles runAvg speedWind from/ knotsBaromVisibWave heightAir tempDewpointWater temp
2014-Jul-26 02:33N 47°39' W 005°08'  
2014-Jul-20 05:27N 50°35' E 000°17'8 8.4
2014-Jul-20 04:33N 50°37' E 000°28'9 7.9
2014-Jul-20 03:29N 50°41' E 000°40'7 7.9
2014-Jul-20 02:33N 50°45' E 000°49'29 9.7
2014-Jul-19 23:33N 51°03' E 001°26'1010.0
2014-Jul-19 22:33N 51°09' E 001°38'9 8.9
2014-Jul-19 21:34N 51°16' E 001°48'8 7.9
2014-Jul-19 20:33N 51°22' E 001°55'7 7.2
2014-Jul-19 19:33N 51°28' E 002°02'8 7.8
2014-Jul-19 18:33N 51°34' E 002°10'8 7.9
2014-Jul-19 17:33N 51°40' E 002°19'62 8.8
2014-Jul-19 10:33N 52°03' E 003°51'9 9.3
2014-Jul-19 09:33N 51°59' E 004°04'8 8.0
2014-Jul-19 08:33N 51°54' E 004°14'0 0.0
2014-Jul-19 07:32N 51°54' E 004°14'0 0.0
2014-Jul-19 06:31N 51°54' E 004°14'0 0.1
2014-Jul-19 05:33N 51°54' E 004°14'0 0.0
2014-Jul-19 04:34N 51°54' E 004°14'0 0.0
2014-Jul-19 03:33N 51°54' E 004°14'0 0.0
2014-Jul-19 02:33N 51°54' E 004°14'0 0.0
2014-Jul-19 01:32N 51°54' E 004°14'0 0.0
2014-Jul-19 00:33N 51°54' E 004°14'0 0.0
2014-Jul-18 23:33N 51°54' E 004°14'0 0.0
2014-Jul-18 22:34N 51°54' E 004°14'0 0.0
2014-Jul-18 21:33N 51°54' E 004°14'0 0.0
2014-Jul-18 20:33N 51°54' E 004°14'0 0.0
2014-Jul-18 19:32N 51°54' E 004°14'0 0.0
2014-Jul-18 18:31N 51°54' E 004°14'1 0.9
2014-Jul-18 17:33N 51°54' E 004°14'9 8.8
2014-Jul-18 16:33N 51°59' E 004°02'72 8.4
2014-Jul-18 08:04N 53°10' E 004°23'4 8.0
2014-Jul-18 07:33N 53°14' E 004°26'12 9.7
2014-Jul-18 06:17N 53°25' E 004°34'1110.3
2014-Jul-18 05:15N 53°31' E 004°49'811.2
2014-Jul-18 04:32N 53°33' E 005°02'1111.0
2014-Jul-18 03:33N 53°37' E 005°19'1010.5
2014-Jul-18 02:33N 53°40' E 005°36'10 9.7
2014-Jul-18 01:33N 53°44' E 005°52'20 8.8
2014-Jul-17 23:17N 53°50' E 006°23'6 8.6
2014-Jul-17 22:33N 53°51' E 006°34'9 9.2
2014-Jul-17 21:33N 53°53' E 006°49'1110.2
2014-Jul-17 20:28N 53°56' E 007°07'1010.9
2014-Jul-17 19:32N 53°58' E 007°24'1010.0
2014-Jul-17 18:33N 53°58' E 007°41'1410.0
2014-Jul-17 17:11N 53°51' E 008°01'711.7
2014-Jul-17 16:33N 53°46' E 008°10'1010.2
2014-Jul-17 15:33N 53°40' E 008°23'9 8.9
2014-Jul-17 14:33N 53°33' E 008°33'2 1.6
2014-Jul-17 13:32N 53°32' E 008°35'0 0.0
2014-Jul-17 12:32N 53°32' E 008°35'0 0.0
2014-Jul-17 11:32N 53°32' E 008°35'0 0.0
2014-Jul-17 10:31N 53°32' E 008°35'0 0.0
2014-Jul-17 09:31N 53°32' E 008°35'0 0.0
2014-Jul-17 08:33N 53°32' E 008°35'0 0.0
2014-Jul-17 07:30N 53°32' E 008°35'0 0.0
2014-Jul-17 06:32N 53°32' E 008°35'0 0.0
2014-Jul-17 05:32N 53°32' E 008°35'0 0.0
2014-Jul-17 04:31N 53°32' E 008°35'0 0.0
2014-Jul-17 03:28N 53°32' E 008°35'0 0.0
2014-Jul-17 02:28N 53°32' E 008°35'0 0.0
2014-Jul-17 01:33N 53°32' E 008°35'0 0.0
2014-Jul-17 00:33N 53°32' E 008°35'0 0.0
2014-Jul-16 23:32N 53°32' E 008°35'0 0.0
2014-Jul-16 22:32N 53°32' E 008°35'0 0.0
2014-Jul-16 21:32N 53°32' E 008°35'0 0.0
2014-Jul-16 20:31N 53°32' E 008°35'0 0.0
2014-Jul-16 19:31N 53°32' E 008°35'0 0.0
2014-Jul-16 18:33N 53°32' E 008°35'0 0.0
2014-Jul-16 17:33N 53°32' E 008°35'0 0.0
2014-Jul-16 16:33N 53°32' E 008°35'0 0.0
2014-Jul-16 15:32N 53°32' E 008°35'0 0.0
2014-Jul-16 14:32N 53°32' E 008°35'0 0.0
2014-Jul-16 13:31N 53°32' E 008°35'0 0.0
2014-Jul-16 12:31N 53°32' E 008°35'0 0.0
2014-Jul-16 11:27N 53°32' E 008°35'0 0.0
2014-Jul-16 10:33N 53°32' E 008°35'0 0.0
2014-Jul-16 09:33N 53°32' E 008°35'0 0.0
2014-Jul-16 08:32N 53°32' E 008°35'0 0.0
2014-Jul-16 07:29N 53°32' E 008°35'0 0.0
2014-Jul-16 06:31N 53°32' E 008°35'0 0.0
2014-Jul-16 05:31N 53°32' E 008°35'0 0.0
2014-Jul-16 04:30N 53°32' E 008°35'0 0.0
2014-Jul-16 03:33N 53°32' E 008°35'  

Dump ship's entire track history